createdAt,value
2023-01-18T00:00:32.785Z,70.37
2023-01-18T00:03:00.382Z,69.66
2023-01-18T00:05:27.860Z,69.64
2023-01-18T00:07:55.186Z,69.48
2023-01-18T00:10:22.844Z,69.77
2023-01-18T00:12:50.192Z,70.57
2023-01-18T00:15:17.796Z,70.21
2023-01-18T00:17:51.805Z,70.81
2023-01-18T00:20:21.181Z,70.88
2023-01-18T00:22:48.687Z,71.11
2023-01-18T00:25:15.975Z,70.15
2023-01-18T00:27:50.725Z,69.45
2023-01-18T00:30:20.852Z,69.62
2023-01-18T00:32:48.781Z,70.37
2023-01-18T00:35:16.331Z,69.70
2023-01-18T00:37:45.363Z,69.91
2023-01-18T00:40:12.733Z,69.58
2023-01-18T00:42:58.959Z,69.69
2023-01-18T00:45:26.566Z,68.94
2023-01-18T00:47:53.835Z,68.78
2023-01-18T00:50:22.569Z,68.84
2023-01-18T00:52:50.362Z,68.72
2023-01-18T00:55:17.910Z,68.72
2023-01-18T00:57:45.084Z,68.86
2023-01-18T01:00:15.563Z,68.97
2023-01-18T01:02:42.962Z,69.41
2023-01-18T01:05:37.979Z,68.77
2023-01-18T01:08:06.167Z,68.62
2023-01-18T01:10:34.476Z,68.30
2023-01-18T01:13:20.453Z,68.25
2023-01-18T01:16:06.490Z,68.30
2023-01-18T01:18:52.482Z,67.85
2023-01-18T01:21:38.260Z,68.18
2023-01-18T01:24:24.686Z,68.18
2023-01-18T01:26:52.199Z,67.93
2023-01-18T01:29:19.360Z,68.39
2023-01-18T01:31:46.607Z,68.31
2023-01-18T01:34:14.434Z,68.15
2023-01-18T01:36:41.567Z,68.48
2023-01-18T01:39:11.261Z,68.59
2023-01-18T01:41:38.505Z,68.30
2023-01-18T01:44:17.977Z,68.62
2023-01-18T01:46:49.174Z,68.43
2023-01-18T01:49:17.963Z,68.48
2023-01-18T01:51:51.965Z,68.62
2023-01-18T01:54:24.066Z,68.44
2023-01-18T01:56:52.516Z,68.49
2023-01-18T01:59:20.327Z,68.22
2023-01-18T02:01:47.954Z,68.04
2023-01-18T02:04:15.613Z,68.74
2023-01-18T02:06:42.875Z,68.83
2023-01-18T02:09:12.624Z,68.66
2023-01-18T02:11:40.068Z,68.56
2023-01-18T02:14:09.475Z,68.37
2023-01-18T02:17:05.292Z,68.52
2023-01-18T02:20:11.817Z,69.01
2023-01-18T02:23:01.283Z,68.90
2023-01-18T02:25:31.515Z,68.83
2023-01-18T02:28:18.634Z,68.82
2023-01-18T02:31:18.848Z,68.40
2023-01-18T02:34:07.086Z,68.58
2023-01-18T02:36:57.559Z,68.51
2023-01-18T02:39:32.075Z,68.41
2023-01-18T02:42:27.178Z,68.33
2023-01-18T02:45:13.113Z,68.27
2023-01-18T02:47:40.429Z,68.21
2023-01-18T02:50:09.292Z,68.29
2023-01-18T02:52:47.623Z,68.12
2023-01-18T02:55:40.352Z,68.21
2023-01-18T02:58:20.246Z,67.88
2023-01-18T03:00:50.451Z,67.57
2023-01-18T03:03:17.631Z,67.81
2023-01-18T03:05:44.880Z,67.82
2023-01-18T03:08:15.330Z,67.54
2023-01-18T03:10:53.262Z,67.58
2023-01-18T03:13:45.444Z,68.29
2023-01-18T03:16:21.786Z,68.22
2023-01-18T03:19:01.927Z,67.86
2023-01-18T03:21:42.183Z,68.10
2023-01-18T03:24:10.169Z,68.22
2023-01-18T03:26:43.088Z,68.31
2023-01-18T03:29:28.713Z,68.21
2023-01-18T03:32:18.152Z,67.80
2023-01-18T03:34:48.474Z,67.76
2023-01-18T03:37:26.464Z,67.69
2023-01-18T03:40:02.764Z,67.79
2023-01-18T03:42:45.720Z,67.43
2023-01-18T03:45:22.828Z,68.02
2023-01-18T03:47:51.280Z,67.96
2023-01-18T03:50:18.510Z,67.80
2023-01-18T03:52:47.364Z,67.57
2023-01-18T03:55:19.417Z,67.36
2023-01-18T03:57:51.659Z,67.16
2023-01-18T04:00:19.611Z,67.00
2023-01-18T04:02:48.209Z,66.87
2023-01-18T04:05:15.627Z,66.63
2023-01-18T04:07:43.272Z,66.22
2023-01-18T04:10:11.359Z,65.87
2023-01-18T04:12:38.559Z,66.08
2023-01-18T04:15:06.672Z,66.27
2023-01-18T04:17:33.949Z,66.22
2023-01-18T04:20:01.234Z,65.96
2023-01-18T04:22:28.398Z,66.29
2023-01-18T04:24:55.913Z,66.25
2023-01-18T04:27:25.303Z,66.36
2023-01-18T04:29:52.948Z,66.35
2023-01-18T04:32:20.758Z,66.65
2023-01-18T04:34:48.310Z,66.32
2023-01-18T04:37:15.639Z,65.81
2023-01-18T04:39:42.919Z,65.55
2023-01-18T04:42:10.428Z,65.55
2023-01-18T04:44:37.743Z,65.65
2023-01-18T04:47:04.982Z,65.63
2023-01-18T04:49:32.444Z,65.42
2023-01-18T04:51:59.649Z,65.52
2023-01-18T04:54:26.985Z,65.72
2023-01-18T04:56:54.551Z,65.88
2023-01-18T04:59:21.946Z,66.17
2023-01-18T05:01:49.471Z,66.46
2023-01-18T05:04:17.032Z,66.00
2023-01-18T05:06:44.850Z,65.65
2023-01-18T05:09:12.727Z,65.88
2023-01-18T05:11:40.055Z,66.00
2023-01-18T05:14:07.252Z,66.21
2023-01-18T05:16:34.629Z,66.04
2023-01-18T05:19:01.963Z,66.76
2023-01-18T05:21:29.249Z,66.49
2023-01-18T05:23:56.924Z,66.86
2023-01-18T05:26:24.567Z,67.23
2023-01-18T05:28:56.740Z,67.50
2023-01-18T05:31:24.132Z,67.25
2023-01-18T05:33:51.372Z,67.68
2023-01-18T05:36:18.800Z,68.10
2023-01-18T05:38:46.867Z,68.64
2023-01-18T05:41:14.052Z,68.48
2023-01-18T05:43:41.434Z,67.89
2023-01-18T05:46:08.774Z,67.15
2023-01-18T05:48:36.179Z,67.21
2023-01-18T05:51:09.029Z,66.96
2023-01-18T05:53:36.178Z,67.58
2023-01-18T05:56:05.543Z,68.47
2023-01-18T05:58:32.725Z,68.67
2023-01-18T06:01:00.221Z,69.17
2023-01-18T06:03:27.885Z,69.28
2023-01-18T06:05:55.073Z,69.30
2023-01-18T06:08:22.347Z,68.97
2023-01-18T06:10:54.585Z,69.00
2023-01-18T06:13:25.615Z,68.63
2023-01-18T06:15:54.955Z,67.55
2023-01-18T06:18:22.664Z,67.25
2023-01-18T06:20:49.967Z,67.16
2023-01-18T06:23:17.153Z,67.20
2023-01-18T06:25:44.576Z,67.30
2023-01-18T06:28:11.842Z,67.47
2023-01-18T06:30:39.150Z,67.66
2023-01-18T06:33:07.560Z,67.43
2023-01-18T06:35:34.910Z,66.99
2023-01-18T06:38:03.482Z,66.86
2023-01-18T06:40:31.141Z,66.74
2023-01-18T06:42:58.872Z,66.83
2023-01-18T06:45:26.433Z,67.25
2023-01-18T06:47:53.782Z,66.71
2023-01-18T06:50:21.271Z,65.87
2023-01-18T06:52:48.588Z,65.99
2023-01-18T06:55:15.940Z,66.21
2023-01-18T06:57:43.219Z,66.31
2023-01-18T07:00:11.380Z,66.92
2023-01-18T07:02:38.632Z,67.34
2023-01-18T07:05:06.251Z,67.02
2023-01-18T07:07:34.281Z,66.56
2023-01-18T07:10:01.509Z,65.85
2023-01-18T07:12:28.762Z,66.38
2023-01-18T07:14:55.973Z,66.44
2023-01-18T07:17:23.237Z,66.48
2023-01-18T07:19:50.620Z,66.30
2023-01-18T07:22:17.782Z,66.17
2023-01-18T07:24:45.883Z,65.66
2023-01-18T07:27:13.353Z,65.96
2023-01-18T07:29:40.850Z,65.86
2023-01-18T07:32:08.150Z,65.21
2023-01-18T07:34:35.392Z,65.27
2023-01-18T07:37:02.619Z,65.03
2023-01-18T07:39:29.875Z,64.96
2023-01-18T07:41:57.116Z,64.56
2023-01-18T07:44:24.401Z,64.74
2023-01-18T07:46:51.611Z,64.86
2023-01-18T07:49:18.819Z,64.15
2023-01-18T07:51:46.093Z,63.82
2023-01-18T07:54:13.387Z,64.23
2023-01-18T07:56:40.595Z,63.76
2023-01-18T07:59:08.598Z,63.87
2023-01-18T08:01:36.010Z,63.64
2023-01-18T08:04:03.518Z,63.32
2023-01-18T08:06:30.908Z,63.35
2023-01-18T08:08:58.221Z,63.15
2023-01-18T08:11:25.688Z,63.22
2023-01-18T08:13:53.146Z,63.29
2023-01-18T08:16:20.567Z,63.87
2023-01-18T08:18:51.015Z,63.82
2023-01-18T08:21:18.314Z,63.68
2023-01-18T08:23:45.631Z,64.03
2023-01-18T08:26:15.181Z,63.65
2023-01-18T08:28:42.442Z,63.61
2023-01-18T08:31:12.507Z,64.01
2023-01-18T08:33:45.629Z,64.37
2023-01-18T08:36:14.383Z,64.63
2023-01-18T08:38:41.643Z,64.66
2023-01-18T08:41:08.884Z,64.34
2023-01-18T08:43:36.508Z,64.53
2023-01-18T08:46:03.754Z,64.73
2023-01-18T08:48:31.007Z,64.58
2023-01-18T08:51:02.707Z,64.04
2023-01-18T08:53:30.908Z,63.81
2023-01-18T08:55:58.499Z,63.74
2023-01-18T08:58:25.831Z,63.57
2023-01-18T09:00:54.229Z,63.05
2023-01-18T09:03:22.087Z,62.82
2023-01-18T09:05:49.661Z,62.65
2023-01-18T09:08:17.796Z,62.73
2023-01-18T09:10:45.237Z,63.18
2023-01-18T09:13:12.510Z,63.01
2023-01-18T09:15:39.818Z,63.15
2023-01-18T09:18:08.380Z,63.50
2023-01-18T09:20:36.467Z,63.97
2023-01-18T09:23:07.316Z,64.01
2023-01-18T09:25:36.701Z,63.97
2023-01-18T09:28:04.689Z,63.45
2023-01-18T09:30:32.507Z,63.47
2023-01-18T09:33:01.387Z,64.01
2023-01-18T09:35:28.748Z,64.25
2023-01-18T09:37:56.215Z,64.46
2023-01-18T09:40:44.918Z,64.59
2023-01-18T09:43:40.064Z,64.65
2023-01-18T09:46:22.169Z,65.07
2023-01-18T09:48:59.916Z,64.69
2023-01-18T09:51:33.048Z,65.54
2023-01-18T09:54:40.140Z,66.56
2023-01-18T09:57:33.728Z,67.18
2023-01-18T10:00:01.734Z,66.26
2023-01-18T10:02:39.288Z,66.54
2023-01-18T10:05:12.426Z,66.64
2023-01-18T10:08:08.050Z,66.56
2023-01-18T10:10:40.677Z,67.58
2023-01-18T10:13:17.251Z,66.94
2023-01-18T10:15:44.740Z,67.47
2023-01-18T10:18:12.024Z,67.67
2023-01-18T10:20:43.710Z,67.90
2023-01-18T10:23:22.245Z,67.91
2023-01-18T10:25:56.565Z,68.14
2023-01-18T10:28:47.913Z,67.70
2023-01-18T10:31:40.202Z,68.24
2023-01-18T10:34:26.658Z,68.96
2023-01-18T10:37:14.997Z,68.50
2023-01-18T10:39:51.449Z,68.88
2023-01-18T10:42:57.007Z,69.65
2023-01-18T10:45:26.588Z,69.50
2023-01-18T10:47:55.193Z,69.52
2023-01-18T10:50:40.237Z,68.90
2023-01-18T10:53:25.079Z,69.43
2023-01-18T10:56:00.454Z,68.88
2023-01-18T10:58:58.115Z,68.60
2023-01-18T11:01:55.403Z,69.68
2023-01-18T11:04:27.999Z,68.82
2023-01-18T11:06:57.050Z,69.33
2023-01-18T11:09:48.763Z,69.72
2023-01-18T11:12:34.333Z,70.04
2023-01-18T11:15:14.150Z,69.85
2023-01-18T11:17:58.176Z,69.45
2023-01-18T11:20:30.335Z,70.81
2023-01-18T11:23:03.528Z,70.62
2023-01-18T11:26:09.471Z,70.45
2023-01-18T11:28:39.852Z,70.88
2023-01-18T11:31:20.454Z,71.30
2023-01-18T11:33:57.685Z,70.17
2023-01-18T11:36:46.571Z,69.94
2023-01-18T11:39:25.050Z,70.66
2023-01-18T11:42:14.185Z,70.83
2023-01-18T11:45:19.250Z,70.69
2023-01-18T11:48:17.933Z,71.05
2023-01-18T11:50:54.354Z,70.93
2023-01-18T11:53:21.862Z,70.83
2023-01-18T11:56:06.596Z,70.63
2023-01-18T11:58:35.263Z,70.00
2023-01-18T12:01:09.085Z,70.46
2023-01-18T12:03:56.497Z,70.27
2023-01-18T12:06:27.530Z,71.02
2023-01-18T12:09:04.165Z,70.86
2023-01-18T12:11:37.558Z,70.36
2023-01-18T12:14:30.408Z,70.15
2023-01-18T12:17:35.135Z,69.93
2023-01-18T12:20:44.269Z,69.88
2023-01-18T12:23:42.688Z,70.84
2023-01-18T12:26:31.347Z,70.39
2023-01-18T12:29:01.719Z,70.55
2023-01-18T12:32:02.943Z,70.25
2023-01-18T12:34:33.249Z,69.82
2023-01-18T12:37:22.020Z,69.43
2023-01-18T12:39:58.791Z,69.93
2023-01-18T12:42:49.741Z,70.13
2023-01-18T12:45:28.120Z,69.99
2023-01-18T12:48:00.288Z,69.61
2023-01-18T12:50:29.911Z,69.97
2023-01-18T12:53:02.923Z,69.94
2023-01-18T12:55:31.837Z,69.87
2023-01-18T12:58:00.442Z,69.92
2023-01-18T13:00:35.642Z,69.91
2023-01-18T13:03:05.084Z,70.34
2023-01-18T13:05:35.667Z,69.90
2023-01-18T13:08:10.353Z,69.81
2023-01-18T13:10:37.988Z,69.90
2023-01-18T13:13:06.176Z,69.85
2023-01-18T13:15:38.975Z,69.65
2023-01-18T13:18:12.190Z,69.06
2023-01-18T13:20:54.453Z,68.93
2023-01-18T13:23:25.977Z,68.90
2023-01-18T13:26:17.793Z,68.98
2023-01-18T13:28:46.501Z,68.88
2023-01-18T13:31:13.796Z,68.51
2023-01-18T13:33:45.111Z,68.36
2023-01-18T13:36:14.631Z,68.58
2023-01-18T13:38:52.724Z,68.60
2023-01-18T13:41:25.188Z,68.71
2023-01-18T13:43:57.049Z,68.87
2023-01-18T13:46:25.390Z,68.92
2023-01-18T13:49:00.985Z,68.85
2023-01-18T13:51:37.307Z,69.27
2023-01-18T13:54:05.010Z,69.13
2023-01-18T13:56:33.558Z,69.20
2023-01-18T13:59:23.971Z,70.29
2023-01-18T14:01:51.578Z,71.57
2023-01-18T14:04:32.181Z,71.41
2023-01-18T14:07:01.294Z,71.23
2023-01-18T14:09:43.326Z,71.11
2023-01-18T14:12:11.689Z,70.88
2023-01-18T14:14:56.726Z,71.20
2023-01-18T14:17:25.502Z,71.21
2023-01-18T14:19:57.512Z,70.73
2023-01-18T14:22:37.202Z,70.52
2023-01-18T14:25:42.973Z,70.02
2023-01-18T14:28:13.668Z,69.99
2023-01-18T14:30:41.259Z,70.67
2023-01-18T14:33:11.808Z,71.59
2023-01-18T14:35:39.225Z,71.62
2023-01-18T14:38:17.518Z,71.14
2023-01-18T14:40:47.811Z,71.60
2023-01-18T14:43:28.327Z,71.18
2023-01-18T14:46:06.005Z,70.54
2023-01-18T14:48:34.987Z,70.89
2023-01-18T14:51:02.687Z,70.49
2023-01-18T14:53:34.648Z,71.73
2023-01-18T14:56:35.106Z,71.73
2023-01-18T14:59:12.079Z,71.03
2023-01-18T15:01:40.257Z,70.75
2023-01-18T15:04:19.747Z,70.36
2023-01-18T15:07:01.673Z,69.93
2023-01-18T15:09:34.811Z,70.67
2023-01-18T15:12:04.545Z,70.92
2023-01-18T15:14:52.093Z,71.31
2023-01-18T15:17:23.625Z,70.77
2023-01-18T15:19:53.461Z,72.27
2023-01-18T15:22:22.215Z,71.94
2023-01-18T15:24:49.865Z,72.19
2023-01-18T15:27:19.126Z,72.15
2023-01-18T15:29:48.062Z,72.87
2023-01-18T15:32:17.170Z,72.23
2023-01-18T15:34:45.539Z,73.09
2023-01-18T15:37:16.444Z,74.02
2023-01-18T15:40:02.029Z,73.31
2023-01-18T15:42:32.262Z,73.12
2023-01-18T15:44:59.687Z,73.48
2023-01-18T15:47:38.727Z,74.09
2023-01-18T15:50:15.700Z,75.08
2023-01-18T15:53:06.422Z,75.08
2023-01-18T15:55:41.227Z,75.33
2023-01-18T15:58:19.876Z,75.56
2023-01-18T16:01:00.504Z,76.15
2023-01-18T16:03:41.075Z,75.35
2023-01-18T16:06:17.286Z,76.65
2023-01-18T16:09:11.828Z,76.14
2023-01-18T16:11:40.079Z,76.62
2023-01-18T16:14:22.723Z,76.52
2023-01-18T16:16:50.133Z,76.36
2023-01-18T16:19:31.898Z,76.15
2023-01-18T16:22:01.075Z,76.17
2023-01-18T16:24:34.585Z,76.66
2023-01-18T16:27:15.833Z,76.94
2023-01-18T16:29:50.389Z,76.72
2023-01-18T16:32:29.323Z,76.32
2023-01-18T16:34:59.277Z,76.27
2023-01-18T16:37:26.831Z,76.15
2023-01-18T16:39:57.103Z,75.85
2023-01-18T16:42:33.309Z,75.59
2023-01-18T16:45:07.083Z,75.39
2023-01-18T16:47:35.376Z,75.48
2023-01-18T16:50:05.131Z,75.33
2023-01-18T16:52:32.385Z,76.42
2023-01-18T16:54:59.774Z,76.38
2023-01-18T16:57:30.219Z,76.71
2023-01-18T16:59:57.619Z,74.40
2023-01-18T17:02:25.342Z,61.20
2023-01-18T17:04:52.844Z,60.54
2023-01-18T17:07:20.212Z,60.09
2023-01-18T17:09:49.055Z,59.79
2023-01-18T17:12:16.887Z,59.37
2023-01-18T17:14:44.224Z,59.59
2023-01-18T17:17:11.522Z,59.22
2023-01-18T17:19:40.597Z,60.25
2023-01-18T17:22:07.875Z,60.91
2023-01-18T17:24:35.528Z,60.56
2023-01-18T17:27:03.027Z,60.11
2023-01-18T17:29:30.289Z,59.22
2023-01-18T17:31:57.945Z,59.75
2023-01-18T17:34:28.568Z,59.57
2023-01-18T17:37:00.203Z,58.59
2023-01-18T17:39:42.722Z,58.73
2023-01-18T17:42:22.284Z,59.09
2023-01-18T17:44:50.884Z,59.98
2023-01-18T17:47:18.129Z,60.65
2023-01-18T17:49:45.493Z,60.77
2023-01-18T17:52:12.732Z,59.82
2023-01-18T17:54:39.988Z,59.10
2023-01-18T17:57:07.141Z,59.62
2023-01-18T17:59:34.498Z,59.26
2023-01-18T18:02:01.800Z,59.57
2023-01-18T18:04:30.800Z,59.79
2023-01-18T18:06:58.750Z,59.60
2023-01-18T18:09:25.983Z,59.98
2023-01-18T18:11:53.296Z,60.74
2023-01-18T18:14:20.631Z,60.77
2023-01-18T18:16:48.053Z,60.57
2023-01-18T18:19:18.153Z,60.74
2023-01-18T18:21:46.197Z,59.82
2023-01-18T18:24:13.554Z,59.57
2023-01-18T18:26:41.188Z,60.59
2023-01-18T18:29:09.229Z,60.69
2023-01-18T18:31:38.783Z,60.53
2023-01-18T18:34:06.142Z,60.54
2023-01-18T18:36:33.433Z,60.39
2023-01-18T18:39:01.835Z,60.12
2023-01-18T18:41:29.175Z,60.48
2023-01-18T18:43:57.564Z,60.35
2023-01-18T18:46:24.938Z,60.67
2023-01-18T18:48:55.081Z,60.50
2023-01-18T18:51:22.835Z,59.89
2023-01-18T18:53:50.199Z,59.74
2023-01-18T18:56:17.532Z,59.66
2023-01-18T18:58:46.314Z,59.58
2023-01-18T19:01:25.175Z,59.39
2023-01-18T19:03:53.106Z,59.71
2023-01-18T19:06:21.198Z,59.39
2023-01-18T19:08:48.481Z,59.29
2023-01-18T19:11:15.897Z,59.99
2023-01-18T19:13:43.995Z,59.64
2023-01-18T19:16:11.734Z,59.40
2023-01-18T19:18:38.964Z,59.08
2023-01-18T19:21:06.737Z,58.59
2023-01-18T19:23:34.688Z,59.23
2023-01-18T19:26:02.193Z,59.70
2023-01-18T19:28:29.560Z,59.81
2023-01-18T19:31:07.544Z,60.80
2023-01-18T19:33:35.028Z,60.61
2023-01-18T19:36:13.463Z,60.36
2023-01-18T19:38:45.872Z,60.39
2023-01-18T19:41:14.531Z,60.16
2023-01-18T19:43:43.009Z,59.31
2023-01-18T19:46:15.437Z,61.01
2023-01-18T19:48:43.228Z,60.25
2023-01-18T19:51:21.210Z,59.62
2023-01-18T19:53:49.378Z,59.71
2023-01-18T19:56:16.695Z,59.42
2023-01-18T19:58:44.425Z,59.77
2023-01-18T20:01:34.171Z,60.49
2023-01-18T20:04:04.834Z,59.79
2023-01-18T20:06:32.127Z,59.32
2023-01-18T20:08:59.893Z,60.46
2023-01-18T20:11:27.109Z,60.33
2023-01-18T20:13:54.711Z,60.35
2023-01-18T20:16:22.409Z,60.43
2023-01-18T20:18:49.714Z,60.49
2023-01-18T20:21:18.590Z,60.87
2023-01-18T20:23:45.930Z,59.31
2023-01-18T20:26:14.499Z,59.97
2023-01-18T20:28:42.744Z,60.96
2023-01-18T20:31:10.468Z,58.75
2023-01-18T20:33:38.519Z,58.92
2023-01-18T20:36:07.077Z,59.10
2023-01-18T20:38:34.403Z,59.42
2023-01-18T20:41:01.765Z,59.86
2023-01-18T20:43:29.233Z,58.77
2023-01-18T20:46:04.189Z,58.76
2023-01-18T20:48:32.904Z,58.92
2023-01-18T20:51:00.834Z,60.17
2023-01-18T20:53:28.404Z,58.28
2023-01-18T20:55:55.895Z,58.92
2023-01-18T20:58:23.217Z,58.56
2023-01-18T21:00:53.738Z,58.87
2023-01-18T21:03:21.083Z,58.55
2023-01-18T21:05:48.394Z,58.14
2023-01-18T21:08:17.562Z,58.46
2023-01-18T21:10:44.940Z,57.83
2023-01-18T21:13:12.155Z,57.91
2023-01-18T21:15:41.895Z,57.86
2023-01-18T21:18:09.162Z,57.96
2023-01-18T21:20:36.439Z,57.94
2023-01-18T21:23:04.135Z,57.12
2023-01-18T21:25:31.405Z,56.85
2023-01-18T21:27:58.847Z,57.38
2023-01-18T21:30:26.408Z,57.70
2023-01-18T21:32:58.403Z,57.23
2023-01-18T21:35:30.044Z,57.94
2023-01-18T21:37:59.900Z,57.44
2023-01-18T21:40:29.298Z,58.18
2023-01-18T21:43:15.405Z,57.12
2023-01-18T21:45:55.327Z,56.72
2023-01-18T21:48:23.433Z,57.86
2023-01-18T21:51:09.342Z,57.96
2023-01-18T21:53:55.434Z,57.01
2023-01-18T21:56:24.007Z,56.98
2023-01-18T21:59:01.998Z,57.16
2023-01-18T22:01:39.192Z,56.72
2023-01-18T22:04:29.725Z,57.47
2023-01-18T22:06:59.603Z,56.16
2023-01-18T22:09:27.545Z,55.72
2023-01-18T22:11:56.499Z,56.03
2023-01-18T22:14:23.812Z,56.62
2023-01-18T22:16:51.012Z,55.49
2023-01-18T22:19:19.395Z,56.65
2023-01-18T22:21:47.023Z,56.30
2023-01-18T22:24:14.778Z,56.66
2023-01-18T22:26:42.475Z,55.83
2023-01-18T22:29:09.996Z,56.04
2023-01-18T22:31:37.612Z,55.57
2023-01-18T22:34:05.623Z,54.21
2023-01-18T22:36:33.487Z,54.64
2023-01-18T22:39:01.219Z,54.17
2023-01-18T22:41:28.844Z,53.80
2023-01-18T22:43:56.200Z,53.98
2023-01-18T22:46:24.185Z,53.72
2023-01-18T22:48:51.687Z,54.07
2023-01-18T22:51:23.257Z,54.22
2023-01-18T22:53:50.979Z,54.22
2023-01-18T22:56:25.177Z,53.72
2023-01-18T22:58:52.719Z,53.88
2023-01-18T23:01:25.594Z,54.30
2023-01-18T23:03:53.716Z,53.68
2023-01-18T23:06:21.187Z,52.92
2023-01-18T23:08:48.664Z,53.38
2023-01-18T23:11:26.913Z,52.69
2023-01-18T23:14:14.310Z,52.66
2023-01-18T23:17:00.903Z,52.01
2023-01-18T23:19:30.465Z,51.12
2023-01-18T23:21:58.249Z,51.82
2023-01-18T23:24:25.684Z,52.04
2023-01-18T23:26:53.227Z,52.14
2023-01-18T23:29:20.853Z,51.55
2023-01-18T23:31:48.082Z,51.62
2023-01-18T23:34:15.776Z,51.36
2023-01-18T23:36:42.973Z,50.45
2023-01-18T23:39:28.953Z,51.06
2023-01-18T23:42:14.803Z,51.54
2023-01-18T23:45:00.732Z,50.53
2023-01-18T23:47:46.751Z,50.32
2023-01-18T23:50:32.672Z,50.37
2023-01-18T23:53:19.599Z,50.56
2023-01-18T23:55:46.858Z,51.20
2023-01-18T23:58:14.152Z,50.62
